Terminal Aerodrome Forecast
Issued by NWS Flagstaff, AZ

Home | Current Version | Previous Version | Text Only | Print | Product List | Glossary On
Versions: 1 2 3 4 5 6 7 8 9 10 11 12 13 14 15
000
FTUS45 KFGZ 072200 AAA
TAFINW
TAF AMD
KINW 072200Z 0722/0818 25013KT P6SM SCT110
      TEMPO 0722/0724 VRB20G30KT TSRA BKN100CB
     FM080300 26008KT P6SM FEW120=

USA.gov is the U.S. government's official web portal to all federal, state and local government web resources and services.